TFM - Tactical Decision Aid (Experimental) INFO Settings
ID: Runway Winds: CIG/VIS Threshold: METAR Board: Map:

KDFW - Dallas/Fort Worth Intl

Updated at: 0523 UTC 30 Jul 2016
Latest TAF at: 0520 UTC 30 Jul 2016

TAF Board

Time0453Z30/06Z30/07Z30/08Z30/09Z30/10Z30/11Z30/12Z30/13Z30/14Z30/15Z30/16Z30/17Z30/18Z
TypeOBSPRVLPRVLPRVLPRVLPRVLPRVLPRVLPRVLPRVLPRVLPRVLPRVLPRVL
VIS10>6>6>6>6>6>6>6>6>6>6>6>6>6
CIG----------------------------
CoverFEWSCTSCTSCTSCTSCTSCTSCTSCTSCTSCTSCTSCTSCT
FltCatVFRVFRVFRVFRVFRVFRVFRVFRVFRVFRVFRVFRVFRVFR
WX----------------------------
WDir110190190190190190190190190190190190190190
WSpd610101010101010101010101010
WGst----------------------------
TAF
KDFW 300520Z 3006/3112 19010KT P6SM FEW050 SCT250

METAR
KDFW 300453Z 11006KT 10SM FEW050 FEW250 29/21 A2997 RMK AO2 SLP137 T02890206

TAF/METAR Board Legend

Potential Impact
  None Marginal Slight Moderate High
Visibility (sm) >5 3≤X≤5 1≤X<3 0.5≤X<1 <0.5
Ceiling (100 ft) >30 10≤X≤30 4≤X<10 2≤X<4 <2
Wind Speed (kt) <10 10≤X<20 20≤X<30 ≥30
Wind Gust (kt) <15 15≤X<25 25≤X<35 ≥35
Weather No Wx Reported VCTS -TS,-FZRA TS,FZRA +TS,+FZRA




Page loaded:  05:23 UTC  |   10:23 PM Pacific  |   11:23 PM Mountain  |   12:23 AM Central  |   01:23 AM Eastern